CYHU

Montréal / Saint-Hubert Airport

Montréal, Quebec, Canada
METAR CYHU 260556Z AUTO 09004KT 5SM BR OVC008 11/11 A2959 RMK SLP023
Observed Flight Rules
Apr-26 @ 05:56 UTC (5 minutes ago) Instrument Flight Rules
Wind Visibility Clouds Conditions
90° at 4 knots 5 miles
  • Overcast at 800' AGL
  • Mist
Temperatures Readings
Current 11°C / 52°F
Dewpoint 11°C / 52°F
Humidity 100%
Altimeter 29.59" Hg
Pressure 1002.3 hPa
Elevation 27
METAR CYHU 260556Z AUTO 09004KT 5SM BR OVC008 11/11 A2959 RMK SLP023
Observed Flight Rules
Apr-26 @ 05:56 UTC
(5 minutes ago)
IFR
Wind Visibility
90° at 4 knots 5 miles
Clouds
  • Overcast at 800' AGL
Conditions
  • Mist
Temperature Dewpoint
11°C / 52°F 11°C / 52°F
Humidity Altimeter Pressure
100% 29.59" Hg 1002.3 hPa